createdAt,value
2018-02-27T00:00:41.649Z,0.00
2018-02-27T00:01:41.590Z,0.00
2018-02-27T00:02:41.470Z,0.00
2018-02-27T00:03:41.374Z,0.00
2018-02-27T00:04:41.282Z,0.00
2018-02-27T00:05:41.195Z,0.00
2018-02-27T00:06:41.094Z,0.00
2018-02-27T00:07:41.007Z,0.00
2018-02-27T00:08:40.911Z,0.00
2018-02-27T00:09:40.833Z,0.00
2018-02-27T00:10:40.725Z,0.00
2018-02-27T00:11:40.635Z,0.00
2018-02-27T00:12:40.542Z,0.00
2018-02-27T00:13:40.453Z,0.00
2018-02-27T00:14:40.358Z,0.00
2018-02-27T00:15:40.266Z,0.00
2018-02-27T00:16:40.174Z,0.00
2018-02-27T00:17:40.090Z,0.00
2018-02-27T00:18:39.987Z,0.00
2018-02-27T00:19:39.894Z,0.00
2018-02-27T00:20:39.799Z,0.00
2018-02-27T00:21:39.711Z,0.00
2018-02-27T00:22:39.614Z,0.00
2018-02-27T00:23:39.527Z,0.00
2018-02-27T00:24:39.434Z,0.00
2018-02-27T00:25:39.342Z,0.00
2018-02-27T00:26:39.246Z,0.00
2018-02-27T00:27:39.154Z,0.00
2018-02-27T00:28:39.062Z,0.00
2018-02-27T00:29:38.967Z,0.00
2018-02-27T00:30:38.877Z,0.00
2018-02-27T00:31:38.786Z,0.00
2018-02-27T00:32:38.695Z,0.00
2018-02-27T00:33:38.599Z,0.00
2018-02-27T00:34:38.507Z,0.00
2018-02-27T00:35:38.414Z,0.00
2018-02-27T00:36:38.321Z,0.00
2018-02-27T00:37:38.228Z,0.00
2018-02-27T00:38:38.134Z,0.00
2018-02-27T00:39:38.042Z,0.00
2018-02-27T00:40:37.950Z,0.00
2018-02-27T00:41:37.859Z,0.00
2018-02-27T00:42:37.769Z,0.00
2018-02-27T00:43:37.673Z,0.00
2018-02-27T00:44:37.581Z,0.00
2018-02-27T00:45:37.489Z,0.00
2018-02-27T00:46:37.396Z,0.00
2018-02-27T00:47:37.303Z,0.00
2018-02-27T00:48:37.226Z,0.00
2018-02-27T00:49:37.116Z,0.00
2018-02-27T00:50:37.026Z,0.00
2018-02-27T00:51:36.932Z,0.00
2018-02-27T00:52:36.838Z,0.00
2018-02-27T00:53:36.750Z,0.00
2018-02-27T00:54:36.654Z,0.00
2018-02-27T00:55:36.562Z,0.00
2018-02-27T00:56:36.475Z,0.00
2018-02-27T00:57:36.375Z,0.00
2018-02-27T00:58:36.298Z,0.00
2018-02-27T00:59:36.190Z,0.00
2018-02-27T01:00:36.100Z,0.00
2018-02-27T01:01:36.007Z,0.00
2018-02-27T01:02:35.916Z,0.00
2018-02-27T01:03:35.819Z,0.00
2018-02-27T01:04:35.729Z,0.00
2018-02-27T01:05:35.645Z,0.00
2018-02-27T01:06:35.542Z,0.00
2018-02-27T01:07:35.450Z,0.00
2018-02-27T01:08:35.359Z,0.00
2018-02-27T01:09:35.266Z,0.00
2018-02-27T01:10:35.175Z,0.00
2018-02-27T01:11:35.080Z,0.00
2018-02-27T01:12:34.989Z,0.00
2018-02-27T01:13:34.895Z,0.00
2018-02-27T01:14:34.803Z,0.00
2018-02-27T01:15:34.710Z,0.00
2018-02-27T01:16:34.625Z,0.00
2018-02-27T01:17:34.526Z,0.00
2018-02-27T01:18:34.433Z,0.00
2018-02-27T01:19:34.339Z,0.00
2018-02-27T01:20:34.247Z,0.00
2018-02-27T01:21:34.156Z,0.00
2018-02-27T01:22:34.063Z,0.00
2018-02-27T01:23:33.969Z,0.00
2018-02-27T01:24:33.875Z,0.00
2018-02-27T01:25:33.785Z,0.00
2018-02-27T01:26:33.690Z,0.00
2018-02-27T01:27:33.599Z,0.00
2018-02-27T01:28:33.505Z,0.00
2018-02-27T01:29:33.414Z,0.00
2018-02-27T01:30:33.319Z,0.00
2018-02-27T01:31:33.228Z,0.00
2018-02-27T01:32:33.135Z,0.00
2018-02-27T01:33:33.043Z,0.00
2018-02-27T01:34:32.948Z,0.00
2018-02-27T01:35:32.859Z,0.00
2018-02-27T01:36:32.764Z,0.00
2018-02-27T01:37:32.675Z,0.00
2018-02-27T01:38:32.579Z,0.00
2018-02-27T01:39:32.489Z,0.00
2018-02-27T01:40:32.395Z,0.00
2018-02-27T01:41:32.302Z,0.00
2018-02-27T01:42:32.210Z,0.00
2018-02-27T01:43:32.118Z,0.00
2018-02-27T01:44:32.024Z,0.00
2018-02-27T01:45:31.935Z,0.00
2018-02-27T01:46:31.839Z,0.00
2018-02-27T01:47:31.747Z,0.00
2018-02-27T01:48:31.654Z,0.00
2018-02-27T01:49:31.561Z,0.00
2018-02-27T01:50:31.467Z,0.00
2018-02-27T01:51:31.392Z,0.00
2018-02-27T01:52:31.282Z,0.00
2018-02-27T01:53:31.190Z,0.00
2018-02-27T01:54:31.105Z,0.00
2018-02-27T01:55:31.010Z,0.00
2018-02-27T01:56:30.914Z,0.00
2018-02-27T01:57:30.818Z,0.00
2018-02-27T01:58:30.726Z,0.00
2018-02-27T01:59:30.631Z,0.00
2018-02-27T02:00:30.540Z,0.00
2018-02-27T02:01:30.456Z,0.00
2018-02-27T02:02:30.356Z,0.00
2018-02-27T02:03:30.262Z,0.00
2018-02-27T02:04:30.171Z,0.00
2018-02-27T02:05:30.079Z,0.00
2018-02-27T02:06:29.982Z,0.00
2018-02-27T02:07:29.890Z,0.00
2018-02-27T02:08:29.798Z,0.00
2018-02-27T02:09:29.705Z,0.00
2018-02-27T02:10:29.612Z,0.00
2018-02-27T02:11:29.518Z,0.00
2018-02-27T02:12:29.428Z,0.00
2018-02-27T02:13:29.338Z,0.00
2018-02-27T02:14:29.240Z,0.00
2018-02-27T02:15:29.147Z,0.00
2018-02-27T02:16:29.057Z,0.00
2018-02-27T02:17:28.966Z,0.00
2018-02-27T02:18:28.870Z,0.00
2018-02-27T02:19:28.781Z,0.00
2018-02-27T02:20:28.685Z,0.00
2018-02-27T02:21:28.593Z,0.00
2018-02-27T02:22:28.497Z,0.00
2018-02-27T02:23:28.414Z,0.00
2018-02-27T02:24:28.312Z,0.00
2018-02-27T02:25:28.220Z,0.00
2018-02-27T02:26:28.126Z,0.00
2018-02-27T02:27:28.043Z,0.00
2018-02-27T02:28:27.940Z,0.00
2018-02-27T02:29:27.859Z,0.00
2018-02-27T02:30:27.778Z,0.00
2018-02-27T02:31:27.666Z,0.00
2018-02-27T02:32:27.593Z,0.00
2018-02-27T02:33:27.477Z,0.00
2018-02-27T02:34:27.398Z,0.00
2018-02-27T02:35:27.293Z,0.00
2018-02-27T02:36:27.199Z,0.00
2018-02-27T02:37:27.105Z,0.00
2018-02-27T02:38:27.016Z,0.00
2018-02-27T02:39:26.920Z,0.00
2018-02-27T02:40:26.844Z,0.00
2018-02-27T02:41:26.734Z,0.00
2018-02-27T02:42:26.657Z,0.00
2018-02-27T02:43:26.550Z,0.00
2018-02-27T02:44:26.457Z,0.00
2018-02-27T02:45:26.364Z,0.00
2018-02-27T02:46:26.269Z,0.00
2018-02-27T02:47:26.177Z,0.00
2018-02-27T02:48:26.082Z,0.00
2018-02-27T02:49:25.990Z,0.00
2018-02-27T02:50:25.907Z,0.00
2018-02-27T02:51:25.806Z,0.00
2018-02-27T02:52:25.720Z,0.00
2018-02-27T02:53:25.618Z,0.00
2018-02-27T02:54:25.527Z,0.00
2018-02-27T02:55:28.278Z,0.00
2018-02-27T02:56:25.343Z,0.00
2018-02-27T02:57:25.251Z,0.00
2018-02-27T02:58:25.156Z,0.00
2018-02-27T02:59:25.073Z,0.00
2018-02-27T03:00:24.970Z,0.00
2018-02-27T03:01:24.877Z,0.00
2018-02-27T03:02:24.784Z,0.00
2018-02-27T03:03:24.690Z,0.00
2018-02-27T03:04:24.602Z,0.00
2018-02-27T03:05:24.514Z,0.00
2018-02-27T03:06:24.409Z,0.00
2018-02-27T03:07:24.319Z,0.00
2018-02-27T03:08:24.229Z,0.00
2018-02-27T03:09:24.142Z,0.00
2018-02-27T03:10:24.045Z,0.00
2018-02-27T03:11:23.949Z,0.00
2018-02-27T03:12:23.854Z,0.00
2018-02-27T03:13:23.762Z,0.00
2018-02-27T03:14:23.670Z,0.00
2018-02-27T03:15:23.572Z,0.00
2018-02-27T03:16:23.480Z,0.00
2018-02-27T03:17:23.393Z,0.00
2018-02-27T03:18:23.295Z,0.00
2018-02-27T03:19:23.201Z,0.00
2018-02-27T03:20:23.110Z,0.00
2018-02-27T03:21:23.017Z,0.00
2018-02-27T03:22:22.922Z,0.00
2018-02-27T03:23:22.843Z,0.00
2018-02-27T03:24:22.737Z,0.00
2018-02-27T03:25:22.644Z,0.00
2018-02-27T03:26:22.552Z,0.00
2018-02-27T03:27:22.458Z,0.00
2018-02-27T03:28:22.366Z,0.00
2018-02-27T03:29:22.272Z,0.00
2018-02-27T03:30:22.185Z,0.00
2018-02-27T03:31:22.085Z,0.00
2018-02-27T03:32:21.992Z,0.00
2018-02-27T03:33:21.900Z,0.00
2018-02-27T03:34:21.818Z,0.00
2018-02-27T03:35:21.727Z,0.00
2018-02-27T03:36:21.621Z,0.00
2018-02-27T03:37:21.527Z,0.00
2018-02-27T03:38:21.435Z,0.00
2018-02-27T03:39:21.346Z,0.00
2018-02-27T03:40:21.246Z,0.00
2018-02-27T03:41:21.158Z,0.00
2018-02-27T03:42:21.064Z,0.00
2018-02-27T03:43:20.970Z,0.00
2018-02-27T03:44:20.878Z,0.00
2018-02-27T03:45:20.783Z,0.00
2018-02-27T03:46:20.692Z,0.00
2018-02-27T03:47:20.594Z,0.00
2018-02-27T03:48:20.508Z,0.00
2018-02-27T03:49:20.408Z,0.00
2018-02-27T03:50:20.316Z,0.00
2018-02-27T03:51:20.224Z,0.00
2018-02-27T03:52:20.136Z,0.00
2018-02-27T03:53:20.040Z,0.00
2018-02-27T03:54:19.941Z,0.00
2018-02-27T03:55:19.850Z,0.00
2018-02-27T03:56:19.760Z,0.00
2018-02-27T03:57:19.667Z,0.00
2018-02-27T03:58:19.571Z,0.00
2018-02-27T03:59:19.478Z,0.00
2018-02-27T04:00:19.386Z,0.00
2018-02-27T04:01:19.291Z,0.00
2018-02-27T04:02:19.198Z,0.00
2018-02-27T04:03:19.105Z,0.00
2018-02-27T04:04:19.011Z,0.00
2018-02-27T04:05:18.920Z,0.00
2018-02-27T04:06:18.828Z,0.00
2018-02-27T04:07:18.732Z,0.00
2018-02-27T04:08:18.684Z,0.00
2018-02-27T04:09:18.544Z,0.00
2018-02-27T04:10:18.451Z,0.00
2018-02-27T04:11:18.358Z,0.00
2018-02-27T04:12:18.267Z,0.00
2018-02-27T04:13:18.172Z,0.00
2018-02-27T04:14:18.078Z,0.00
2018-02-27T04:15:17.986Z,0.00
2018-02-27T04:16:17.892Z,0.00
2018-02-27T04:17:17.799Z,0.00
2018-02-27T04:18:17.704Z,0.00
2018-02-27T04:19:17.611Z,0.00
2018-02-27T04:20:17.517Z,0.00
2018-02-27T04:21:17.425Z,0.00
2018-02-27T04:22:17.333Z,0.00
2018-02-27T04:23:17.237Z,0.00
2018-02-27T04:24:17.148Z,0.00
2018-02-27T04:25:17.051Z,0.00
2018-02-27T04:26:16.957Z,0.00
2018-02-27T04:27:16.863Z,0.00
2018-02-27T04:28:16.771Z,0.00
2018-02-27T04:29:16.676Z,0.00
2018-02-27T04:30:16.584Z,0.00
2018-02-27T04:31:16.491Z,0.00
2018-02-27T04:32:16.401Z,0.00
2018-02-27T04:33:16.305Z,0.00
2018-02-27T04:34:16.210Z,0.00
2018-02-27T04:35:16.116Z,0.00
2018-02-27T04:36:16.024Z,0.00
2018-02-27T04:37:15.929Z,0.00
2018-02-27T04:38:15.833Z,0.00
2018-02-27T04:39:15.740Z,0.00
2018-02-27T04:40:15.648Z,0.00
2018-02-27T04:41:15.555Z,0.00
2018-02-27T04:42:15.462Z,0.00
2018-02-27T04:43:15.369Z,0.00
2018-02-27T04:44:15.277Z,0.00
2018-02-27T04:45:15.183Z,0.00
2018-02-27T04:46:15.088Z,0.00
2018-02-27T04:47:15.000Z,0.00
2018-02-27T04:48:14.912Z,0.00
2018-02-27T04:49:14.809Z,0.00
2018-02-27T04:50:14.714Z,0.00
2018-02-27T04:51:14.620Z,0.00
2018-02-27T04:52:14.529Z,0.00
2018-02-27T04:53:14.435Z,0.00
2018-02-27T04:54:14.340Z,0.00
2018-02-27T04:55:14.245Z,0.00
2018-02-27T04:56:14.158Z,0.00
2018-02-27T04:57:14.078Z,0.00
2018-02-27T04:58:13.975Z,0.00
2018-02-27T04:59:13.874Z,0.00
2018-02-27T05:00:13.781Z,0.00
2018-02-27T05:01:13.750Z,0.00
2018-02-27T05:02:13.595Z,0.00
2018-02-27T05:03:13.499Z,0.00
2018-02-27T05:04:13.407Z,0.00
2018-02-27T05:05:13.315Z,0.00
2018-02-27T05:06:13.220Z,0.00
2018-02-27T05:07:13.139Z,0.00
2018-02-27T05:08:13.031Z,0.00
2018-02-27T05:09:12.940Z,0.00
2018-02-27T05:10:12.845Z,0.00
2018-02-27T05:11:12.751Z,0.00
2018-02-27T05:12:12.657Z,0.00
2018-02-27T05:13:12.578Z,0.00
2018-02-27T05:14:12.471Z,0.00
2018-02-27T05:15:12.378Z,0.00
2018-02-27T05:16:12.283Z,0.00
2018-02-27T05:17:12.203Z,0.00
2018-02-27T05:18:12.104Z,0.00
2018-02-27T05:19:12.001Z,0.00
2018-02-27T05:20:11.905Z,0.00
2018-02-27T05:21:11.816Z,0.00
2018-02-27T05:22:11.720Z,0.00
2018-02-27T05:23:11.627Z,0.00
2018-02-27T05:24:11.534Z,0.00
2018-02-27T05:25:11.442Z,0.00
2018-02-27T05:26:11.347Z,0.00
2018-02-27T05:27:11.253Z,0.00
2018-02-27T05:28:11.161Z,0.00
2018-02-27T05:29:11.072Z,0.00
2018-02-27T05:30:10.977Z,0.00
2018-02-27T05:31:10.881Z,0.00
2018-02-27T05:32:10.787Z,0.00
2018-02-27T05:33:10.695Z,0.00
2018-02-27T05:34:10.598Z,0.00
2018-02-27T05:35:10.501Z,0.00
2018-02-27T05:36:10.409Z,0.00
2018-02-27T05:37:10.316Z,0.00
2018-02-27T05:38:10.221Z,0.00
2018-02-27T05:39:10.132Z,0.00
2018-02-27T05:40:10.045Z,0.00
2018-02-27T05:41:09.943Z,0.00
2018-02-27T05:42:09.845Z,0.00
2018-02-27T05:43:09.756Z,0.00
2018-02-27T05:44:09.660Z,0.00
2018-02-27T05:45:09.567Z,0.00
2018-02-27T05:46:09.473Z,0.00
2018-02-27T05:47:09.377Z,0.00
2018-02-27T05:48:09.285Z,0.00
2018-02-27T05:49:09.192Z,0.00
2018-02-27T05:50:09.094Z,0.00
2018-02-27T05:51:09.003Z,0.00
2018-02-27T05:52:08.911Z,0.00
2018-02-27T05:53:08.819Z,0.00
2018-02-27T05:54:08.725Z,0.00
2018-02-27T05:55:08.630Z,0.00
2018-02-27T05:56:08.534Z,0.00
2018-02-27T05:57:08.440Z,0.00
2018-02-27T05:58:08.346Z,5.63
2018-02-27T05:59:08.266Z,5.63
2018-02-27T06:00:08.159Z,5.63
2018-02-27T06:01:08.065Z,5.63
2018-02-27T06:02:07.981Z,5.63
2018-02-27T06:03:07.877Z,5.63
2018-02-27T06:04:07.786Z,5.63
2018-02-27T06:05:07.691Z,11.25
2018-02-27T06:06:07.596Z,11.25
2018-02-27T06:07:07.501Z,11.25
2018-02-27T06:08:07.408Z,11.25
2018-02-27T06:09:07.315Z,11.25
2018-02-27T06:10:07.221Z,16.88
2018-02-27T06:11:07.174Z,16.88
2018-02-27T06:12:07.033Z,16.88
2018-02-27T06:13:06.957Z,16.88
2018-02-27T06:14:06.848Z,16.88
2018-02-27T06:15:06.754Z,22.50
2018-02-27T06:16:06.660Z,22.50
2018-02-27T06:17:06.563Z,22.50
2018-02-27T06:18:06.473Z,28.13
2018-02-27T06:19:06.378Z,28.13
2018-02-27T06:20:06.313Z,28.13
2018-02-27T06:21:06.190Z,33.75
2018-02-27T06:22:06.093Z,33.75
2018-02-27T06:23:06.034Z,33.75
2018-02-27T06:24:05.908Z,39.38
2018-02-27T06:25:05.816Z,39.38
2018-02-27T06:26:05.718Z,39.38
2018-02-27T06:27:05.628Z,45.00
2018-02-27T06:28:05.532Z,45.00
2018-02-27T06:29:05.437Z,45.00
2018-02-27T06:30:05.343Z,45.00
2018-02-27T06:31:05.252Z,50.63
2018-02-27T06:32:05.156Z,50.63
2018-02-27T06:33:05.065Z,50.63
2018-02-27T06:34:04.970Z,50.63
2018-02-27T06:35:04.874Z,50.63
2018-02-27T06:36:04.783Z,50.63
2018-02-27T06:37:04.686Z,56.25
2018-02-27T06:38:04.590Z,56.25
2018-02-27T06:39:04.500Z,56.25
2018-02-27T06:40:04.405Z,56.25
2018-02-27T06:41:04.314Z,56.25
2018-02-27T06:42:04.217Z,61.88
2018-02-27T06:43:04.124Z,61.88
2018-02-27T06:44:04.030Z,61.88
2018-02-27T06:45:03.940Z,67.50
2018-02-27T06:46:03.851Z,61.88
2018-02-27T06:47:03.748Z,61.88
2018-02-27T06:48:03.656Z,67.50
2018-02-27T06:49:03.562Z,67.50
2018-02-27T06:50:03.468Z,67.50
2018-02-27T06:51:03.375Z,73.13
2018-02-27T06:52:03.283Z,73.13
2018-02-27T06:53:03.185Z,73.13
2018-02-27T06:54:03.093Z,78.75
2018-02-27T06:55:03.001Z,78.75
2018-02-27T06:56:02.910Z,84.38
2018-02-27T06:57:02.832Z,84.38
2018-02-27T06:58:02.721Z,84.38
2018-02-27T06:59:02.628Z,90.00
2018-02-27T07:00:02.536Z,90.00
2018-02-27T07:01:02.439Z,95.63
2018-02-27T07:02:02.344Z,95.63
2018-02-27T07:03:02.251Z,95.63
2018-02-27T07:04:02.162Z,101.25
2018-02-27T07:05:02.065Z,101.25
2018-02-27T07:06:01.971Z,101.25
2018-02-27T07:07:01.881Z,106.88
2018-02-27T07:08:01.791Z,106.88
2018-02-27T07:09:01.694Z,112.50
2018-02-27T07:10:01.600Z,112.50
2018-02-27T07:11:01.504Z,112.50
2018-02-27T07:12:01.408Z,118.13
2018-02-27T07:13:01.321Z,118.13
2018-02-27T07:14:01.223Z,118.13
2018-02-27T07:15:01.133Z,118.13
2018-02-27T07:16:01.035Z,118.13
2018-02-27T07:17:00.942Z,123.75
2018-02-27T07:18:00.849Z,123.75
2018-02-27T07:19:00.759Z,129.38
2018-02-27T07:20:00.664Z,129.38
2018-02-27T07:21:00.569Z,129.38
2018-02-27T07:22:00.475Z,135.00
2018-02-27T07:23:00.382Z,135.00
2018-02-27T07:24:00.288Z,135.00
2018-02-27T07:25:00.207Z,135.00
2018-02-27T07:26:00.106Z,140.63
2018-02-27T07:27:00.007Z,140.63
2018-02-27T07:27:59.915Z,140.63
2018-02-27T07:28:59.822Z,140.63
2018-02-27T07:29:59.729Z,146.25
2018-02-27T07:30:59.634Z,146.25
2018-02-27T07:31:59.543Z,146.25
2018-02-27T07:32:59.449Z,151.88
2018-02-27T07:33:59.361Z,151.88
2018-02-27T07:34:59.264Z,151.88
2018-02-27T07:35:59.173Z,151.88
2018-02-27T07:36:59.078Z,151.88
2018-02-27T07:37:58.983Z,157.50
2018-02-27T07:38:58.892Z,157.50
2018-02-27T07:39:58.797Z,157.50
2018-02-27T07:40:58.704Z,163.13
2018-02-27T07:41:58.609Z,163.13
2018-02-27T07:42:58.517Z,163.13
2018-02-27T07:43:58.432Z,163.13
2018-02-27T07:44:58.332Z,163.13
2018-02-27T07:45:58.238Z,163.13
2018-02-27T07:46:58.147Z,163.13
2018-02-27T07:47:58.054Z,163.13
2018-02-27T07:48:57.960Z,163.13
2018-02-27T07:49:57.872Z,163.13
2018-02-27T07:50:57.774Z,163.13
2018-02-27T07:51:57.682Z,163.13
2018-02-27T07:52:57.587Z,163.13
2018-02-27T07:53:57.496Z,163.13
2018-02-27T07:54:57.403Z,163.13
2018-02-27T07:55:57.310Z,163.13
2018-02-27T07:56:57.215Z,163.13
2018-02-27T07:57:57.123Z,163.13
2018-02-27T07:58:57.030Z,157.50
2018-02-27T07:59:56.938Z,157.50
2018-02-27T08:00:56.844Z,157.50
2018-02-27T08:01:56.749Z,157.50
2018-02-27T08:02:56.657Z,157.50
2018-02-27T08:03:56.577Z,151.88
2018-02-27T08:04:56.473Z,151.88
2018-02-27T08:05:56.380Z,151.88
2018-02-27T08:06:56.293Z,151.88
2018-02-27T08:07:56.193Z,157.50
2018-02-27T08:08:56.101Z,157.50
2018-02-27T08:09:56.010Z,157.50
2018-02-27T08:10:55.964Z,157.50
2018-02-27T08:11:55.824Z,157.50
2018-02-27T08:12:55.732Z,163.13
2018-02-27T08:13:55.638Z,168.75
2018-02-27T08:14:55.544Z,168.75
2018-02-27T08:15:55.452Z,174.38
2018-02-27T08:16:55.361Z,180.00
2018-02-27T08:17:55.265Z,180.00
2018-02-27T08:18:55.174Z,185.63
2018-02-27T08:19:55.082Z,191.25
2018-02-27T08:20:54.997Z,191.25
2018-02-27T08:21:54.961Z,196.88
2018-02-27T08:22:54.805Z,196.88
2018-02-27T08:23:54.714Z,196.88
2018-02-27T08:24:54.621Z,196.88
2018-02-27T08:25:54.526Z,196.88
2018-02-27T08:26:54.433Z,202.50
2018-02-27T08:27:54.341Z,196.88
2018-02-27T08:28:54.249Z,196.88
2018-02-27T08:29:54.160Z,202.50
2018-02-27T08:30:54.061Z,202.50
2018-02-27T08:31:53.969Z,202.50
2018-02-27T08:32:53.877Z,202.50
2018-02-27T08:33:53.783Z,202.50
2018-02-27T08:34:53.691Z,202.50
2018-02-27T08:35:53.599Z,208.13
2018-02-27T08:36:53.507Z,208.13
2018-02-27T08:37:53.413Z,208.13
2018-02-27T08:38:53.324Z,213.75
2018-02-27T08:39:53.230Z,213.75
2018-02-27T08:40:53.136Z,219.38
2018-02-27T08:41:53.043Z,225.00
2018-02-27T08:42:52.953Z,225.00
2018-02-27T08:43:52.863Z,230.63
2018-02-27T08:44:52.769Z,236.25
2018-02-27T08:45:52.677Z,236.25
2018-02-27T08:46:52.582Z,236.25
2018-02-27T08:47:52.491Z,236.25
2018-02-27T08:48:52.396Z,236.25
2018-02-27T08:49:52.305Z,236.25
2018-02-27T08:50:52.253Z,236.25
2018-02-27T08:51:52.128Z,241.88
2018-02-27T08:52:52.030Z,241.88
2018-02-27T08:53:51.936Z,241.88
2018-02-27T08:54:51.847Z,247.50
2018-02-27T08:55:51.754Z,247.50
2018-02-27T08:56:51.662Z,253.13
2018-02-27T08:57:51.569Z,253.13
2018-02-27T08:58:51.477Z,253.13
2018-02-27T08:59:51.386Z,258.75
2018-02-27T09:00:51.293Z,258.75
2018-02-27T09:01:51.200Z,258.75
2018-02-27T09:02:51.110Z,258.75
2018-02-27T09:03:51.019Z,258.75
2018-02-27T09:04:50.927Z,258.75
2018-02-27T09:05:50.833Z,258.75
2018-02-27T09:06:50.742Z,264.38
2018-02-27T09:07:50.649Z,264.38
2018-02-27T09:08:50.558Z,270.00
2018-02-27T09:09:50.466Z,270.00
2018-02-27T09:10:50.374Z,275.63
2018-02-27T09:11:50.282Z,275.63
2018-02-27T09:12:50.194Z,275.63
2018-02-27T09:13:50.097Z,270.00
2018-02-27T09:14:50.080Z,275.63
2018-02-27T09:15:49.915Z,275.63
2018-02-27T09:16:49.826Z,275.63
2018-02-27T09:17:49.733Z,275.63
2018-02-27T09:18:49.647Z,270.00
2018-02-27T09:19:49.553Z,270.00
2018-02-27T09:20:49.461Z,281.25
2018-02-27T09:21:49.369Z,286.88
2018-02-27T09:22:49.277Z,292.50
2018-02-27T09:23:49.184Z,292.50
2018-02-27T09:24:49.094Z,298.13
2018-02-27T09:25:49.013Z,286.88
2018-02-27T09:26:48.909Z,292.50
2018-02-27T09:27:48.818Z,298.13
2018-02-27T09:28:48.737Z,298.13
2018-02-27T09:29:48.634Z,309.38
2018-02-27T09:30:48.545Z,303.75
2018-02-27T09:31:48.450Z,303.75
2018-02-27T09:32:48.363Z,309.38
2018-02-27T09:33:48.267Z,303.75
2018-02-27T09:34:48.177Z,303.75
2018-02-27T09:35:48.089Z,315.00
2018-02-27T09:36:47.995Z,309.38
2018-02-27T09:37:47.908Z,309.38
2018-02-27T09:38:47.830Z,315.00
2018-02-27T09:39:47.721Z,326.25
2018-02-27T09:40:47.632Z,326.25
2018-02-27T09:41:47.542Z,337.50
2018-02-27T09:42:47.446Z,343.13
2018-02-27T09:43:47.363Z,348.75
2018-02-27T09:44:47.282Z,354.38
2018-02-27T09:45:47.173Z,354.38
2018-02-27T09:46:47.083Z,354.38
2018-02-27T09:47:46.990Z,348.75
2018-02-27T09:48:46.899Z,348.75
2018-02-27T09:49:46.809Z,354.38
2018-02-27T09:50:46.719Z,354.38
2018-02-27T09:51:46.627Z,360.00
2018-02-27T09:52:46.538Z,365.63
2018-02-27T09:53:46.448Z,371.25
2018-02-27T09:54:46.354Z,376.88
2018-02-27T09:55:46.262Z,382.50
2018-02-27T09:56:46.174Z,382.50
2018-02-27T09:57:46.082Z,382.50
2018-02-27T09:58:45.990Z,388.13
2018-02-27T09:59:45.909Z,388.13
2018-02-27T10:00:45.814Z,388.13
2018-02-27T10:01:45.720Z,382.50
2018-02-27T10:02:45.628Z,388.13
2018-02-27T10:03:45.537Z,382.50
2018-02-27T10:04:45.448Z,382.50
2018-02-27T10:05:45.364Z,382.50
2018-02-27T10:06:45.266Z,388.13
2018-02-27T10:07:45.178Z,388.13
2018-02-27T10:08:45.085Z,388.13
2018-02-27T10:09:44.996Z,388.13
2018-02-27T10:10:44.908Z,388.13
2018-02-27T10:11:44.828Z,388.13
2018-02-27T10:12:44.726Z,388.13
2018-02-27T10:13:44.634Z,393.75
2018-02-27T10:14:44.542Z,393.75
2018-02-27T10:15:44.453Z,399.38
2018-02-27T10:16:44.363Z,399.38
2018-02-27T10:17:44.274Z,399.38
2018-02-27T10:18:44.185Z,399.38
2018-02-27T10:19:44.092Z,405.00
2018-02-27T10:20:44.007Z,410.63
2018-02-27T10:21:43.911Z,416.25
2018-02-27T10:22:43.824Z,416.25
2018-02-27T10:23:43.736Z,421.88
2018-02-27T10:24:43.642Z,421.88
2018-02-27T10:25:43.552Z,421.88
2018-02-27T10:26:43.463Z,421.88
2018-02-27T10:27:43.373Z,421.88
2018-02-27T10:28:43.282Z,427.50
2018-02-27T10:29:43.192Z,433.13
2018-02-27T10:30:43.111Z,450.00
2018-02-27T10:31:43.013Z,455.63
2018-02-27T10:32:42.939Z,461.25
2018-02-27T10:33:42.830Z,461.25
2018-02-27T10:34:42.788Z,466.88
2018-02-27T10:35:42.656Z,478.13
2018-02-27T10:36:42.565Z,483.75
2018-02-27T10:37:42.475Z,489.38
2018-02-27T10:38:42.396Z,489.38
2018-02-27T10:39:42.294Z,500.63
2018-02-27T10:40:42.241Z,489.38
2018-02-27T10:41:42.116Z,489.38
2018-02-27T10:42:42.027Z,489.38
2018-02-27T10:43:41.936Z,495.00
2018-02-27T10:44:41.847Z,495.00
2018-02-27T10:45:41.757Z,500.63
2018-02-27T10:46:41.668Z,495.00
2018-02-27T10:47:41.604Z,495.00
2018-02-27T10:48:41.489Z,489.38
2018-02-27T10:49:41.401Z,489.38
2018-02-27T10:50:41.315Z,489.38
2018-02-27T10:51:41.224Z,489.38
2018-02-27T10:52:41.142Z,483.75
2018-02-27T10:53:41.044Z,483.75
2018-02-27T10:54:40.954Z,489.38
2018-02-27T10:55:40.871Z,489.38
2018-02-27T10:56:40.778Z,483.75
2018-02-27T10:57:40.688Z,483.75
2018-02-27T10:58:40.597Z,489.38
2018-02-27T10:59:40.508Z,489.38
2018-02-27T11:00:40.420Z,500.63
2018-02-27T11:01:40.332Z,511.88
2018-02-27T11:02:40.239Z,523.13
2018-02-27T11:03:40.221Z,534.38
2018-02-27T11:04:40.064Z,540.00
2018-02-27T11:05:39.973Z,545.63
2018-02-27T11:06:39.884Z,545.63
2018-02-27T11:07:39.797Z,556.88
2018-02-27T11:08:39.706Z,590.63
2018-02-27T11:09:39.664Z,618.75
2018-02-27T11:10:39.528Z,720.00
2018-02-27T11:11:39.442Z,765.00
2018-02-27T11:12:39.351Z,781.88
2018-02-27T11:13:39.260Z,821.25
2018-02-27T11:14:39.171Z,855.00
2018-02-27T11:15:39.085Z,883.13
2018-02-27T11:16:38.998Z,849.38
2018-02-27T11:17:38.907Z,776.25
2018-02-27T11:18:38.822Z,804.38
2018-02-27T11:19:38.732Z,843.75
2018-02-27T11:20:38.646Z,905.63
2018-02-27T11:21:38.555Z,990.00
2018-02-27T11:22:38.469Z,1035.00
2018-02-27T11:23:38.378Z,1029.38
2018-02-27T11:24:38.291Z,877.50
2018-02-27T11:25:38.204Z,1136.25
2018-02-27T11:26:38.137Z,1170.00
2018-02-27T11:27:38.093Z,1226.25
2018-02-27T11:28:37.939Z,1321.88
2018-02-27T11:29:37.855Z,1355.63
2018-02-27T11:30:37.764Z,1372.50
2018-02-27T11:31:37.678Z,1310.63
2018-02-27T11:32:37.594Z,568.13
2018-02-27T11:33:37.507Z,517.50
2018-02-27T11:34:37.423Z,506.25
2018-02-27T11:35:37.334Z,523.13
2018-02-27T11:36:37.255Z,500.63
2018-02-27T11:37:37.161Z,495.00
2018-02-27T11:38:37.076Z,517.50
2018-02-27T11:39:36.989Z,495.00
2018-02-27T11:40:36.905Z,551.25
2018-02-27T11:41:36.816Z,590.63
2018-02-27T11:42:36.733Z,686.25
2018-02-27T11:43:36.650Z,1715.63
2018-02-27T11:44:36.558Z,1479.38
2018-02-27T11:45:36.478Z,1282.50
2018-02-27T11:46:36.388Z,1704.38
2018-02-27T11:47:36.301Z,708.75
2018-02-27T11:48:36.217Z,871.88
2018-02-27T11:49:36.131Z,1113.75
2018-02-27T11:50:36.048Z,708.75
2018-02-27T11:51:35.959Z,652.50
2018-02-27T11:52:35.875Z,641.25
2018-02-27T11:53:35.792Z,641.25
2018-02-27T11:54:35.701Z,703.13
2018-02-27T11:55:35.618Z,1473.75
2018-02-27T11:56:35.532Z,905.63
2018-02-27T11:57:35.452Z,843.75
2018-02-27T11:58:35.361Z,905.63
2018-02-27T11:59:35.277Z,1231.88
2018-02-27T12:00:35.194Z,990.00
2018-02-27T12:01:35.106Z,1760.63
2018-02-27T12:02:35.020Z,1771.88
2018-02-27T12:03:34.934Z,1670.63
2018-02-27T12:04:34.851Z,1620.00
2018-02-27T12:05:34.765Z,1445.63
2018-02-27T12:06:34.680Z,1563.75
2018-02-27T12:07:34.595Z,1535.63
2018-02-27T12:08:34.512Z,1310.63
2018-02-27T12:09:34.424Z,1490.63
2018-02-27T12:10:34.341Z,1518.75
2018-02-27T12:11:34.259Z,1501.88
2018-02-27T12:12:34.174Z,1535.63
2018-02-27T12:13:34.104Z,1378.13
2018-02-27T12:14:34.006Z,1271.25
2018-02-27T12:15:33.925Z,1456.88
2018-02-27T12:16:33.847Z,1338.75
2018-02-27T12:17:33.758Z,1029.38
2018-02-27T12:18:33.675Z,1327.50
2018-02-27T12:19:33.590Z,1006.88
2018-02-27T12:20:33.508Z,618.75
2018-02-27T12:21:33.425Z,624.38
2018-02-27T12:22:33.349Z,888.75
2018-02-27T12:23:33.259Z,1226.25
2018-02-27T12:24:33.176Z,1293.75
2018-02-27T12:25:33.090Z,1327.50
2018-02-27T12:26:33.020Z,1260.00
2018-02-27T12:27:32.927Z,1445.63
2018-02-27T12:28:32.846Z,1530.00
2018-02-27T12:29:32.755Z,1321.88
2018-02-27T12:30:32.674Z,1434.38
2018-02-27T12:31:32.594Z,1136.25
2018-02-27T12:32:32.514Z,1175.63
2018-02-27T12:33:32.432Z,922.50
2018-02-27T12:34:32.341Z,1597.50
2018-02-27T12:35:32.870Z,1428.75
2018-02-27T12:36:32.177Z,1440.00
2018-02-27T12:37:32.096Z,1428.75
2018-02-27T12:38:32.010Z,1501.88
2018-02-27T12:39:31.928Z,1513.13
2018-02-27T12:40:31.847Z,1417.50
2018-02-27T12:41:31.762Z,815.63
2018-02-27T12:42:31.683Z,1417.50
2018-02-27T12:43:31.601Z,1417.50
2018-02-27T12:44:31.520Z,1237.50
2018-02-27T12:45:31.435Z,1518.75
2018-02-27T12:46:31.362Z,1625.63
2018-02-27T12:47:31.274Z,1580.63
2018-02-27T12:48:31.193Z,1569.38
2018-02-27T12:49:31.109Z,1591.88
2018-02-27T12:50:31.033Z,1648.13